Time;durP1;ratioP1;P1;durP2;ratioP2;P2;SDS_P1;SDS_P2;PMS_P1;PMS_P2;Temp;Humidity;BMP_temperature;BMP_pressure;BME280_temperature;BME280_humidity;BME280_pressure;Samples;Min_cycle;Max_cycle;Signal;HPM_P1;HPM_P2
2022/03/24 00:02:10;;;;;;;;;;;;;;;3.94;69.93;100484.03;8415521;28;19932;-71
2022/03/24 00:06:12;;;;;;;;;;;;;;;3.93;70.10;100487.41;8417412;28;19928;-71
2022/03/24 00:10:13;;;;;;;;;;;;;;;3.91;70.40;100482.22;8418945;28;19935;-71
2022/03/24 00:14:16;;;;;;;;;;;;;;;3.88;69.99;100487.22;8419267;28;19928;-71
2022/03/24 00:18:18;;;;;;;;;;;;;;;3.83;70.37;100482.75;8414619;28;20054;-71
2022/03/24 00:22:20;;;;;;;;;;;;;;;3.76;70.25;100483.28;8418335;28;20645;-71
2022/03/24 00:26:21;;;;;;;;;;;;;;;3.73;70.17;100493.44;8397266;28;19935;-71
2022/03/24 00:30:23;;;;;;;;;;;;;;;3.66;70.38;100491.47;8397709;28;19939;-71
2022/03/24 00:34:24;;;;;;;;;;;;;;;3.60;70.45;100490.41;8697719;22;19929;-72
2022/03/24 00:38:26;;;;;;;;;;;;;;;3.54;70.68;100482.41;8287388;28;19935;-72
2022/03/24 00:42:27;;;;;;;;;;;;;;;3.42;71.37;100483.63;8290446;28;20028;-72
2022/03/24 00:46:31;;;;;;;;;;;;;;;3.33;70.93;100486.66;8271295;28;19973;-72
2022/03/24 00:50:32;;;;;;;;;;;;;;;3.30;71.63;100477.16;8268342;28;19933;-72
2022/03/24 00:54:34;;;;;;;;;;;;;;;3.26;71.60;100476.97;8286592;28;19929;-71
2022/03/24 00:58:35;;;;;;;;;;;;;;;3.22;71.91;100480.19;8285490;28;20028;-72
2022/03/24 01:02:37;;;;;;;;;;;;;;;3.16;71.89;100474.81;8286632;28;20024;-71
2022/03/24 01:06:39;;;;;;;;;;;;;;;3.06;72.07;100476.13;8270234;28;19936;-71
2022/03/24 01:10:41;;;;;;;;;;;;;;;3.00;72.08;100474.16;8273192;28;19929;-71
2022/03/24 01:14:44;;;;;;;;;;;;;;;2.98;72.85;100480.03;8291181;28;19934;-71
2022/03/24 01:18:46;;;;;;;;;;;;;;;2.97;72.96;100474.03;8276872;28;19933;-71
2022/03/24 01:22:47;;;;;;;;;;;;;;;2.96;72.61;100466.28;8282472;28;20284;-72
2022/03/24 01:26:49;;;;;;;;;;;;;;;2.88;72.66;100462.50;8278498;28;20036;-72
2022/03/24 01:30:51;;;;;;;;;;;;;;;2.81;72.63;100461.34;8264551;28;20012;-72
2022/03/24 01:34:52;;;;;;;;;;;;;;;2.74;73.84;100461.91;8285903;28;19933;-72
2022/03/24 01:38:54;;;;;;;;;;;;;;;2.62;74.28;100464.78;8281506;28;20020;-72
2022/03/24 01:42:55;;;;;;;;;;;;;;;2.62;74.66;100464.78;8293246;28;19930;-71
2022/03/24 01:46:58;;;;;;;;;;;;;;;2.62;74.49;100464.78;8278534;28;20013;-71
2022/03/24 01:50:59;;;;;;;;;;;;;;;2.53;74.35;100460.97;8287487;28;20502;-72
2022/03/24 01:55:01;;;;;;;;;;;;;;;2.47;74.20;100466.66;8284919;28;20588;-72
2022/03/24 01:59:03;;;;;;;;;;;;;;;2.41;74.23;100461.28;8299714;28;19943;-71
2022/03/24 02:03:05;;;;;;;;;;;;;;;2.38;74.87;100456.88;8278387;28;19929;-72
2022/03/24 02:07:07;;;;;;;;;;;;;;;2.26;74.28;100452.88;8282454;28;20349;-72
2022/03/24 02:11:09;;;;;;;;;;;;;;;2.16;75.33;100456.72;8283339;28;19929;-72
2022/03/24 02:15:10;;;;;;;;;;;;;;;2.12;74.95;100455.69;8276678;28;19984;-72
2022/03/24 02:19:21;;;;;;;;;;;;;;;2.01;75.09;100446.63;8297142;28;19930;-72
2022/03/24 02:23:22;;;;;;;;;;;;;;;1.96;75.71;100450.66;8284480;28;20052;-71
2022/03/24 02:27:24;;;;;;;;;;;;;;;1.96;76.00;100444.66;8272879;28;19948;-72
2022/03/24 02:31:27;;;;;;;;;;;;;;;1.96;76.33;100454.88;8279005;28;19930;-72
2022/03/24 02:35:29;;;;;;;;;;;;;;;1.96;76.32;100453.22;8285001;28;19929;-72
2022/03/24 02:39:30;;;;;;;;;;;;;;;2.00;76.31;100444.00;8286162;28;20055;-72
2022/03/24 02:43:31;;;;;;;;;;;;;;;1.94;75.62;100449.69;8277818;28;19940;-72
2022/03/24 02:47:33;;;;;;;;;;;;;;;1.87;75.46;100442.56;8263061;28;19933;-71
2022/03/24 02:51:36;;;;;;;;;;;;;;;1.85;76.08;100441.59;8252729;28;19936;-72
2022/03/24 02:55:37;;;;;;;;;;;;;;;1.86;75.37;100447.59;8248227;28;20595;-72
2022/03/24 02:59:39;;;;;;;;;;;;;;;1.82;74.83;100446.59;8248458;28;20025;-72
2022/03/24 03:03:41;;;;;;;;;;;;;;;1.78;74.92;100440.41;8263098;28;20025;-72
2022/03/24 03:07:42;;;;;;;;;;;;;;;1.73;75.12;100454.69;8258742;28;20017;-72
2022/03/24 03:11:45;;;;;;;;;;;;;;;1.67;75.61;100458.66;8258400;28;20020;-72
2022/03/24 03:15:46;;;;;;;;;;;;;;;1.58;75.52;100455.63;8251718;28;19929;-72
2022/03/24 03:19:47;;;;;;;;;;;;;;;1.52;75.55;100453.66;8252528;28;20675;-71
2022/03/24 03:23:49;;;;;;;;;;;;;;;1.52;75.40;100461.34;8253357;28;20024;-72
2022/03/24 03:27:50;;;;;;;;;;;;;;;1.49;75.98;100463.75;8257508;28;19939;-72
2022/03/24 03:31:53;;;;;;;;;;;;;;;1.41;75.84;100462.47;8250920;28;19949;-72
2022/03/24 03:35:55;;;;;;;;;;;;;;;1.36;75.91;100462.25;8259408;28;19933;-72
2022/03/24 03:39:57;;;;;;;;;;;;;;;1.32;76.38;100469.72;8249870;28;20203;-72
2022/03/24 03:43:59;;;;;;;;;;;;;;;1.31;75.78;100473.97;8260261;28;19929;-72
2022/03/24 03:48:00;;;;;;;;;;;;;;;1.29;76.25;100473.00;8250681;28;19936;-72
2022/03/24 03:52:01;;;;;;;;;;;;;;;1.24;76.42;100471.00;8256248;28;20453;-72
2022/03/24 03:56:04;;;;;;;;;;;;;;;1.21;76.26;100470.06;8260276;28;19941;-72
2022/03/24 04:04:26;;;;;;;;;;;;;;;1.14;76.75;100468.00;8291796;28;19929;-72
2022/03/24 04:08:28;;;;;;;;;;;;;;;1.11;77.15;100467.84;8292716;28;20234;-71
2022/03/24 04:12:30;;;;;;;;;;;;;;;1.10;77.28;100463.53;8291847;28;19929;-71
2022/03/24 04:16:32;;;;;;;;;;;;;;;1.06;77.23;100463.28;8278335;28;20516;-72
2022/03/24 04:20:34;;;;;;;;;;;;;;;1.03;77.65;100466.56;8249539;28;19934;-71
2022/03/24 04:24:36;;;;;;;;;;;;;;;0.95;77.64;100461.88;8254319;28;19930;-71
2022/03/24 04:28:37;;;;;;;;;;;;;;;0.91;77.95;100463.41;8246628;28;19937;-72
2022/03/24 04:32:39;;;;;;;;;;;;;;;0.89;78.16;100470.97;8253507;28;19929;-72
2022/03/24 04:36:40;;;;;;;;;;;;;;;0.87;78.61;100462.34;8254929;28;19934;-71
2022/03/24 04:40:41;;;;;;;;;;;;;;;0.88;78.31;100476.00;8258019;28;20630;-72
2022/03/24 04:44:43;;;;;;;;;;;;;;;0.86;78.06;100467.38;8256467;28;19934;-72
2022/03/24 04:48:44;;;;;;;;;;;;;;;0.87;77.69;100469.13;8251597;28;19930;-72
2022/03/24 04:52:46;;;;;;;;;;;;;;;0.80;77.38;100470.50;8256581;28;19965;-72
2022/03/24 04:56:47;;;;;;;;;;;;;;;0.77;77.80;100472.03;8260146;28;20645;-72
2022/03/24 05:00:49;;;;;;;;;;;;;;;0.75;77.73;100466.84;8250537;28;20354;-72
2022/03/24 05:04:50;;;;;;;;;;;;;;;0.70;77.85;100481.03;8243565;28;19957;-72
2022/03/24 05:08:52;;;;;;;;;;;;;;;0.58;78.15;100477.88;8243755;28;19940;-72
2022/03/24 05:12:53;;;;;;;;;;;;;;;0.51;78.23;100475.78;8243041;28;19960;-72
2022/03/24 05:16:55;;;;;;;;;;;;;;;0.46;78.81;100477.22;8240269;28;20384;-72
2022/03/24 05:20:56;;;;;;;;;;;;;;;0.49;78.74;100474.81;8262785;28;19930;-72
2022/03/24 05:24:57;;;;;;;;;;;;;;;0.49;78.79;100483.34;8244719;28;20509;-72
2022/03/24 05:28:59;;;;;;;;;;;;;;;0.45;78.63;100483.13;8244707;28;20703;-72
2022/03/24 05:33:00;;;;;;;;;;;;;;;0.50;78.81;100486.78;8241850;28;19940;-72
2022/03/24 05:37:01;;;;;;;;;;;;;;;0.52;78.72;100490.31;8258127;28;19929;-72
2022/03/24 05:41:04;;;;;;;;;;;;;;;0.52;78.89;100495.41;8254380;28;19937;-73
2022/03/24 05:45:05;;;;;;;;;;;;;;;0.48;78.82;100491.81;8254122;28;20514;-73
2022/03/24 05:49:08;;;;;;;;;;;;;;;0.48;78.69;100496.06;8274240;28;19934;-72
2022/03/24 05:53:09;;;;;;;;;;;;;;;0.53;78.75;100489.50;8288248;28;19933;-72
2022/03/24 05:57:10;;;;;;;;;;;;;;;0.52;78.56;100493.72;8288400;28;19962;-72
2022/03/24 06:01:13;;;;;;;;;;;;;;;0.48;78.92;100488.38;8283264;28;19929;-72
2022/03/24 06:05:15;;;;;;;;;;;;;;;0.51;79.01;100488.53;8288548;28;20013;-72
2022/03/24 06:09:17;;;;;;;;;;;;;;;0.58;79.16;100499.19;8286836;28;20420;-72
2022/03/24 06:13:18;;;;;;;;;;;;;;;0.68;78.91;100497.09;8286811;28;19940;-72
2022/03/24 06:17:20;;;;;;;;;;;;;;;0.76;78.83;100499.28;8283933;28;19933;-72
2022/03/24 06:21:21;;;;;;;;;;;;;;;0.93;78.77;100506.94;8286592;28;19929;-72
2022/03/24 06:25:22;;;;;;;;;;;;;;;1.14;78.39;100505.50;8287068;28;20732;-72
2022/03/24 06:29:24;;;;;;;;;;;;;;;1.36;77.88;100508.31;8276021;28;19933;-73
2022/03/24 06:33:26;;;;;;;;;;;;;;;1.94;76.49;100500.03;8281146;28;19933;-73
2022/03/24 06:37:28;;;;;;;;;;;;;;;2.58;74.36;100503.94;8271434;28;19933;-72
2022/03/24 06:41:29;;;;;;;;;;;;;;;3.24;71.73;100494.00;8272488;28;19929;-72
2022/03/24 06:45:30;;;;;;;;;;;;;;;3.82;69.75;100498.97;8266812;28;19929;-72
2022/03/24 06:49:32;;;;;;;;;;;;;;;4.41;67.82;100496.16;8242130;28;19938;-72
2022/03/24 06:53:33;;;;;;;;;;;;;;;4.80;66.58;100493.31;8241216;28;19944;-73
2022/03/24 06:57:36;;;;;;;;;;;;;;;5.04;65.45;100494.19;8255921;28;19933;-73
2022/03/24 07:01:40;;;;;;;;;;;;;;;5.17;64.86;100500.63;8247873;28;20345;-72
2022/03/24 07:05:41;;;;;;;;;;;;;;;5.24;64.98;100499.16;8273409;28;20594;-72
2022/03/24 07:09:43;;;;;;;;;;;;;;;5.35;65.19;100493.53;8274140;28;20559;-73
2022/03/24 07:13:45;;;;;;;;;;;;;;;5.53;65.31;100500.16;8270025;28;20028;-75
2022/03/24 07:17:46;;;;;;;;;;;;;;;5.81;65.13;100492.50;8270752;28;19937;-72
2022/03/24 07:21:47;;;;;;;;;;;;;;;6.20;64.36;100490.34;8274438;28;20408;-73
2022/03/24 07:25:49;;;;;;;;;;;;;;;6.66;63.55;100486.56;8278697;28;19941;-72
2022/03/24 07:29:50;;;;;;;;;;;;;;;7.12;61.39;100485.25;8278424;28;19937;-72
2022/03/24 07:33:53;;;;;;;;;;;;;;;7.61;60.75;100496.88;8276700;28;19930;-73
2022/03/24 07:37:54;;;;;;;;;;;;;;;8.02;59.61;100490.97;8278891;28;20445;-74
2022/03/24 07:41:55;;;;;;;;;;;;;;;8.44;58.50;100492.84;8277546;28;19929;-73
2022/03/24 07:45:57;;;;;;;;;;;;;;;8.79;57.96;100489.25;8269883;28;20526;-72
2022/03/24 07:49:58;;;;;;;;;;;;;;;9.04;56.85;100488.03;8263282;28;19933;-72
2022/03/24 07:54:02;;;;;;;;;;;;;;;9.33;56.31;100493.75;8246266;28;19934;-72
2022/03/24 07:58:05;;;;;;;;;;;;;;;9.58;55.26;100491.63;8246229;28;19930;-72
2022/03/24 08:02:07;;;;;;;;;;;;;;;9.93;55.50;100489.59;8258703;28;20024;-72
2022/03/24 08:06:09;;;;;;;;;;;;;;;10.36;54.25;100487.69;8246481;28;20060;-72
2022/03/24 08:10:10;;;;;;;;;;;;;;;10.74;52.90;100485.59;8246332;28;20012;-73
2022/03/24 08:14:11;;;;;;;;;;;;;;;11.03;52.73;100485.94;8247835;28;19934;-73
2022/03/24 08:18:14;;;;;;;;;;;;;;;11.41;52.35;100489.81;8242742;28;19933;-72
2022/03/24 08:22:15;;;;;;;;;;;;;;;11.81;51.47;100492.81;8247467;28;19929;-73
2022/03/24 08:26:17;;;;;;;;;;;;;;;12.19;50.40;100493.09;8246760;28;19934;-74
2022/03/24 08:30:22;;;;;;;;;;;;;;;12.65;49.93;100486.41;8243193;28;19977;-73
2022/03/24 08:34:23;;;;;;;;;;;;;;;13.01;48.84;100479.59;8245969;28;19953;-73
2022/03/24 08:38:25;;;;;;;;;;;;;;;13.39;47.19;100482.34;8246681;28;19940;-74
2022/03/24 08:42:26;;;;;;;;;;;;;;;13.72;46.42;100489.34;8245073;28;19936;-74
2022/03/24 08:46:27;;;;;;;;;;;;;;;14.07;45.52;100483.25;8240482;28;19929;-73
2022/03/24 08:50:29;;;;;;;;;;;;;;;14.31;43.40;100485.78;8247295;28;19992;-73
2022/03/24 08:54:30;;;;;;;;;;;;;;;14.71;42.78;100483.09;8244351;28;19934;-73
2022/03/24 08:58:31;;;;;;;;;;;;;;;15.01;41.65;100482.97;8243431;28;19940;-73
2022/03/24 09:02:34;;;;;;;;;;;;;;;15.37;41.38;100486.25;8242433;28;19930;-73
2022/03/24 09:06:36;;;;;;;;;;;;;;;15.71;40.63;100479.94;8245714;28;19930;-73
2022/03/24 09:10:37;;;;;;;;;;;;;;;15.95;39.61;100476.25;8259174;28;19936;-73
2022/03/24 09:14:43;;;;;;;;;;;;;;;16.24;39.12;100477.72;8245581;28;19933;-73
2022/03/24 09:18:44;;;;;;;;;;;;;;;16.46;38.41;100474.00;8243565;28;20290;-73
2022/03/24 09:22:47;;;;;;;;;;;;;;;16.54;36.99;100476.53;8246749;28;20507;-73
2022/03/24 09:26:48;;;;;;;;;;;;;;;16.75;36.31;100480.69;8246751;28;19933;-72
2022/03/24 09:30:50;;;;;;;;;;;;;;;17.07;35.56;100483.78;8256207;28;19934;-73
2022/03/24 09:34:51;;;;;;;;;;;;;;;17.34;34.61;100472.00;8245245;28;19929;-73
2022/03/24 09:38:53;;;;;;;;;;;;;;;17.71;35.45;100479.38;8240625;28;19933;-72
2022/03/24 09:42:55;;;;;;;;;;;;;;;18.02;33.94;100480.59;8244703;28;20460;-73
2022/03/24 09:46:56;;;;;;;;;;;;;;;18.25;32.79;100474.03;8239767;28;19933;-73
2022/03/24 09:50:58;;;;;;;;;;;;;;;18.45;32.85;100471.91;8250214;28;19933;-72
2022/03/24 09:54:59;;;;;;;;;;;;;;;18.74;32.54;100475.78;8240831;28;19980;-73
2022/03/24 09:59:02;;;;;;;;;;;;;;;18.81;31.39;100474.72;8257142;28;19934;-73
2022/03/24 10:03:07;;;;;;;;;;;;;;;18.86;31.47;100475.53;8263964;28;19930;-73
2022/03/24 10:07:09;;;;;;;;;;;;;;;19.03;31.13;100468.16;8249029;28;19930;-74
2022/03/24 10:11:10;;;;;;;;;;;;;;;19.08;30.12;100470.66;8248126;28;19948;-74
2022/03/24 10:15:12;;;;;;;;;;;;;;;19.25;31.01;100458.00;8246668;28;19936;-73
2022/03/24 10:19:15;;;;;;;;;;;;;;;19.56;30.75;100472.19;8249977;28;19940;-73
2022/03/24 10:23:17;;;;;;;;;;;;;;;19.66;30.82;100462.31;8248830;28;20248;-73
2022/03/24 10:27:26;;;;;;;;;;;;;;;19.87;30.79;100458.28;8247844;28;19930;-73
2022/03/24 10:31:34;;;;;;;;;;;;;;;19.98;30.72;100447.47;8244111;28;19965;-73
2022/03/24 10:35:36;;;;;;;;;;;;;;;20.13;29.07;100450.56;8247780;28;21299;-73
2022/03/24 10:39:38;;;;;;;;;;;;;;;20.31;29.38;100445.69;8248505;28;20238;-73
2022/03/24 10:43:39;;;;;;;;;;;;;;;20.48;28.53;100448.78;8251260;28;20320;-73
2022/03/24 10:47:51;;;;;;;;;;;;;;;20.57;28.97;100445.84;8238548;28;19961;-73
2022/03/24 10:51:53;;;;;;;;;;;;;;;20.70;27.82;100441.09;8263687;28;19930;-73
2022/03/24 10:55:59;;;;;;;;;;;;;;;20.68;27.93;100449.06;8264874;28;20951;-73
2022/03/24 11:00:03;;;;;;;;;;;;;;;20.66;26.14;100444.75;8253296;28;19956;-73
2022/03/24 11:04:05;;;;;;;;;;;;;;;20.63;26.26;100426.34;8267945;28;19933;-73
2022/03/24 11:08:08;;;;;;;;;;;;;;;20.69;25.45;100434.09;8254513;28;19934;-73
2022/03/24 11:12:22;;;;;;;;;;;;;;;20.86;27.95;100425.69;8256276;28;20400;-71
2022/03/24 11:16:25;;;;;;;;;;;;;;;21.09;27.09;100424.06;8251999;28;19940;-73
2022/03/24 11:20:36;;;;;;;;;;;;;;;21.19;27.42;100419.38;8246140;28;19930;-73
2022/03/24 11:24:37;;;;;;;;;;;;;;;21.36;24.97;100410.91;8251431;28;19940;-73
2022/03/24 11:28:39;;;;;;;;;;;;;;;21.47;25.98;100407.94;8250565;28;20044;-73
2022/03/24 11:32:42;;;;;;;;;;;;;;;21.74;25.38;100408.81;8249864;28;19959;-73
2022/03/24 11:36:43;;;;;;;;;;;;;;;21.66;24.31;100412.56;8248386;28;19949;-73
2022/03/24 11:40:44;;;;;;;;;;;;;;;21.58;25.69;100401.38;8238417;28;19941;-73
2022/03/24 11:44:52;;;;;;;;;;;;;;;21.70;24.27;100400.94;8254541;28;19936;-73
2022/03/24 11:49:11;;;;;;;;;;;;;;;21.60;24.49;100388.13;8232058;28;20003;-73
2022/03/24 11:53:19;;;;;;;;;;;;;;;21.18;23.64;100380.63;8243631;28;20171;-73
2022/03/24 11:57:31;;;;;;;;;;;;;;;21.45;24.91;100378.06;8248190;28;19981;-73
2022/03/24 12:01:33;;;;;;;;;;;;;;;21.63;24.37;100373.00;8239643;28;19930;-72
2022/03/24 12:05:53;;;;;;;;;;;;;;;21.63;23.31;100367.72;8239341;28;19981;-72
2022/03/24 12:09:56;;;;;;;;;;;;;;;21.46;24.02;100354.22;8249721;28;19941;-72
2022/03/24 12:14:01;;;;;;;;;;;;;;;21.63;23.61;100354.50;8248255;28;19940;-73
2022/03/24 12:18:04;;;;;;;;;;;;;;;21.58;24.18;100350.31;8247356;28;19960;-73
2022/03/24 12:22:24;;;;;;;;;;;;;;;21.63;25.57;100340.44;8254939;28;20016;-73
2022/03/24 12:26:26;;;;;;;;;;;;;;;21.85;26.25;100337.88;8239711;28;20013;-72
2022/03/24 12:30:41;;;;;;;;;;;;;;;22.04;25.75;100338.94;8248196;28;20016;-73
2022/03/24 12:34:44;;;;;;;;;;;;;;;22.10;24.46;100338.78;8253493;28;19957;-73
2022/03/24 12:38:53;;;;;;;;;;;;;;;22.13;23.89;100332.50;8253999;28;20001;-73
2022/03/24 12:42:55;;;;;;;;;;;;;;;;;;8251594;28;19937;-73
2022/03/24 12:46:58;;;;;;;;;;;;;;;22.15;23.50;100328.03;8231516;28;19929;-72
2022/03/24 12:51:14;;;;;;;;;;;;;;;22.05;23.10;100322.19;8240236;28;19930;-72
2022/03/24 12:55:20;;;;;;;;;;;;;;;22.09;23.68;100317.69;8251751;28;19946;-72
2022/03/24 12:59:21;;;;;;;;;;;;;;;22.11;22.83;100310.53;8237435;28;20090;-72
2022/03/24 13:03:23;;;;;;;;;;;;;;;22.19;23.30;100309.31;8248924;28;19930;-72
2022/03/24 13:07:26;;;;;;;;;;;;;;;22.22;22.76;100309.22;8252098;28;19957;-72
2022/03/24 13:11:46;;;;;;;;;;;;;;;22.22;22.86;100295.97;8244117;28;20668;-73
2022/03/24 13:15:48;;;;;;;;;;;;;;;22.19;22.77;100293.44;8255414;28;19936;-72
2022/03/24 13:19:50;;;;;;;;;;;;;;;22.38;22.55;100292.75;8249630;28;20134;-72
2022/03/24 13:23:54;;;;;;;;;;;;;;;22.44;21.81;100287.22;8251579;28;19930;-72
2022/03/24 13:27:56;;;;;;;;;;;;;;;22.34;20.87;100284.06;8250961;28;20886;-72
2022/03/24 13:32:06;;;;;;;;;;;;;;;22.45;22.08;100273.09;8247533;28;19980;-72
2022/03/24 13:36:08;;;;;;;;;;;;;;;22.51;21.65;100263.09;8229377;28;19930;-72
2022/03/24 13:40:11;;;;;;;;;;;;;;;22.57;22.58;100265.50;8233647;28;20012;-72
2022/03/24 13:44:13;;;;;;;;;;;;;;;22.60;22.63;100267.16;8230440;28;19936;-72
2022/03/24 13:48:17;;;;;;;;;;;;;;;22.57;22.18;100254.06;8222650;28;19972;-72
2022/03/24 13:52:35;;;;;;;;;;;;;;;22.51;22.21;100246.38;8233962;28;19930;-72
2022/03/24 13:56:36;;;;;;;;;;;;;;;22.71;23.42;100249.06;8231688;28;19940;-72
2022/03/24 14:00:42;;;;;;;;;;;;;;;22.65;21.84;100240.53;8222459;28;19930;-72
2022/03/24 14:04:59;;;;;;;;;;;;;;;22.53;21.03;100239.22;8227548;28;19958;-72
2022/03/24 14:09:01;;;;;;;;;;;;;;;22.59;21.97;100241.63;8226325;28;19930;-72
2022/03/24 14:13:10;;;;;;;;;;;;;;;22.61;21.49;100226.53;8227382;28;19934;-72
2022/03/24 14:17:12;;;;;;;;;;;;;;;22.60;21.29;100224.81;8218455;28;19937;-72
2022/03/24 14:21:15;;;;;;;;;;;;;;;22.63;21.37;100214.13;8225548;28;19942;-71
2022/03/24 14:25:17;;;;;;;;;;;;;;;22.59;21.16;100209.84;8220119;28;19964;-71
2022/03/24 14:29:21;;;;;;;;;;;;;;;22.66;22.05;100205.19;8232021;28;19974;-72
2022/03/24 14:33:23;;;;;;;;;;;;;;;22.75;20.95;100202.13;8224019;28;19930;-72
2022/03/24 14:37:25;;;;;;;;;;;;;;;22.58;19.96;100202.84;8232450;28;19936;-71
2022/03/24 14:41:26;;;;;;;;;;;;;;;22.45;20.62;100194.53;8230136;28;19934;-72
2022/03/24 14:45:28;;;;;;;;;;;;;;;22.42;20.56;100192.00;8217612;28;19941;-72
2022/03/24 14:49:31;;;;;;;;;;;;;;;22.31;20.59;100192.44;8229955;28;19930;-71
2022/03/24 14:53:32;;;;;;;;;;;;;;;22.40;21.42;100179.75;8225992;28;19929;-71
2022/03/24 14:57:34;;;;;;;;;;;;;;;22.44;21.75;100187.53;8225179;28;19930;-72
2022/03/24 15:01:35;;;;;;;;;;;;;;;22.31;21.17;100187.16;8225704;28;20021;-72
2022/03/24 15:05:37;;;;;;;;;;;;;;;22.32;20.82;100177.44;8224317;28;19930;-71
2022/03/24 15:09:38;;;;;;;;;;;;;;;22.36;21.17;100176.38;8229794;28;20385;-71
2022/03/24 15:13:41;;;;;;;;;;;;;;;22.31;21.21;100181.84;8227086;28;19930;-71
2022/03/24 15:17:42;;;;;;;;;;;;;;;22.30;21.45;100173.97;8220697;28;20536;-71
2022/03/24 15:21:43;;;;;;;;;;;;;;;22.34;21.47;100167.63;8219160;28;20319;-71
2022/03/24 15:25:45;;;;;;;;;;;;;;;22.42;21.12;100162.88;8229717;28;20018;-71
2022/03/24 15:29:47;;;;;;;;;;;;;;;22.55;21.29;100164.13;8223029;28;19930;-71
2022/03/24 15:33:50;;;;;;;;;;;;;;;22.72;21.74;100157.25;8218860;28;19930;-71
2022/03/24 15:37:51;;;;;;;;;;;;;;;23.04;21.29;100163.88;8217899;28;19930;-71
2022/03/24 15:41:53;;;;;;;;;;;;;;;23.26;20.42;100159.34;8229961;28;20530;-71
2022/03/24 15:45:55;;;;;;;;;;;;;;;23.54;18.77;100159.00;8225908;28;19936;-71
2022/03/24 15:49:57;;;;;;;;;;;;;;;23.78;18.86;100157.88;8238501;28;19930;-71
2022/03/24 15:53:58;;;;;;;;;;;;;;;23.86;18.33;100161.97;8242783;28;19973;-71
2022/03/24 15:58:00;;;;;;;;;;;;;;;24.00;19.26;100164.84;8228516;28;20029;-71
2022/03/24 16:02:01;;;;;;;;;;;;;;;24.09;19.21;100165.28;8220370;28;19930;-71
2022/03/24 16:06:03;;;;;;;;;;;;;;;24.25;17.45;100156.59;8226911;28;20485;-71
2022/03/24 16:10:06;;;;;;;;;;;;;;;26.25;16.97;100162.06;8234814;28;19933;-71
2022/03/24 16:14:08;;;;;;;;;;;;;;;27.11;16.54;100156.16;8225523;28;20350;-71
2022/03/24 16:18:09;;;;;;;;;;;;;;;25.85;17.91;100161.63;8221436;28;19930;-72
2022/03/24 16:22:10;;;;;;;;;;;;;;;25.49;18.93;100152.00;8231965;28;20433;-72
2022/03/24 16:26:12;;;;;;;;;;;;;;;25.20;17.65;100160.69;8234251;28;19929;-71
2022/03/24 16:30:14;;;;;;;;;;;;;;;27.07;16.75;100159.94;8227541;28;20032;-71
2022/03/24 16:34:15;;;;;;;;;;;;;;;29.38;14.56;100154.69;8253659;28;19980;-72
2022/03/24 16:38:17;;;;;;;;;;;;;;;30.64;13.71;100155.38;8228459;28;19937;-72
2022/03/24 16:42:19;;;;;;;;;;;;;;;31.27;12.94;100155.94;8252354;28;20052;-71
2022/03/24 16:46:20;;;;;;;;;;;;;;;31.29;13.23;100154.00;8247819;28;20008;-72
2022/03/24 16:50:22;;;;;;;;;;;;;;;30.86;12.75;100151.91;8234110;28;20537;-72
2022/03/24 16:54:23;;;;;;;;;;;;;;;30.19;13.59;100162.31;8255596;28;20016;-72
2022/03/24 16:58:26;;;;;;;;;;;;;;;27.56;15.33;100147.13;8252988;28;19940;-72
2022/03/24 17:02:27;;;;;;;;;;;;;;;24.72;17.29;100154.25;8242604;28;19933;-71
2022/03/24 17:06:28;;;;;;;;;;;;;;;22.83;21.41;100157.72;8252373;28;19953;-71
2022/03/24 17:10:30;;;;;;;;;;;;;;;21.61;23.44;100165.16;8254437;28;20024;-71
2022/03/24 17:14:31;;;;;;;;;;;;;;;20.57;25.54;100160.88;8248307;28;19930;-71
2022/03/24 17:18:33;;;;;;;;;;;;;;;19.69;26.63;100167.09;8236915;28;21056;-71
2022/03/24 17:22:37;;;;;;;;;;;;;;;18.98;28.74;100176.03;8238455;28;20460;-71
2022/03/24 17:26:39;;;;;;;;;;;;;;;18.36;30.85;100180.22;8239538;28;20464;-71
2022/03/24 17:30:40;;;;;;;;;;;;;;;17.85;32.59;100174.38;8239171;28;20405;-71
2022/03/24 17:34:42;;;;;;;;;;;;;;;17.42;33.14;100177.84;8242606;28;20389;-72
2022/03/24 17:38:43;;;;;;;;;;;;;;;17.05;33.63;100186.38;8240762;28;19937;-72
2022/03/24 17:43:04;;;;;;;;;;;;;;;16.68;34.48;100185.28;8241830;28;19945;-72
2022/03/24 17:47:07;;;;;;;;;;;;;;;16.37;34.71;100193.63;8251723;28;19941;-72
2022/03/24 17:51:09;;;;;;;;;;;;;;;16.07;35.66;100191.44;8240495;28;19956;-71
2022/03/24 17:55:12;;;;;;;;;;;;;;;15.74;35.64;100191.00;8254994;28;19934;-72
2022/03/24 17:59:13;;;;;;;;;;;;;;;15.47;34.65;100194.81;8263192;28;20346;-72
2022/03/24 18:03:15;;;;;;;;;;;;;;;15.20;35.28;100195.94;8246796;28;20311;-72
2022/03/24 18:07:16;;;;;;;;;;;;;;;15.02;34.92;100197.00;8247683;28;20428;-71
2022/03/24 18:11:19;;;;;;;;;;;;;;;14.86;36.25;100202.38;8250965;28;19929;-72
2022/03/24 18:15:21;;;;;;;;;;;;;;;14.67;35.83;100202.53;8243363;28;20464;-72
2022/03/24 18:19:23;;;;;;;;;;;;;;;14.51;35.29;100209.63;8239981;28;20025;-72
2022/03/24 18:23:25;;;;;;;;;;;;;;;14.35;36.74;100221.03;8241300;28;20279;-73
2022/03/24 18:27:27;;;;;;;;;;;;;;;14.21;35.16;100215.03;8250022;28;21299;-72
2022/03/24 18:31:29;;;;;;;;;;;;;;;14.08;35.81;100221.19;8240872;28;19930;-70
2022/03/24 18:35:30;;;;;;;;;;;;;;;13.93;35.98;100224.75;8243879;28;19936;-70
2022/03/24 18:39:32;;;;;;;;;;;;;;;13.81;35.86;100230.88;8227461;28;19980;-70
2022/03/24 18:43:33;;;;;;;;;;;;;;;13.68;35.59;100230.97;8241924;28;20651;-70
2022/03/24 18:47:35;;;;;;;;;;;;;;;13.61;35.71;100230.97;8240292;28;19929;-71
2022/03/24 18:51:37;;;;;;;;;;;;;;;13.50;36.15;100234.50;8240951;28;19933;-71
2022/03/24 18:55:39;;;;;;;;;;;;;;;13.36;35.69;100228.44;8238562;28;19936;-70
2022/03/24 18:59:41;;;;;;;;;;;;;;;13.28;36.25;100241.47;8239624;28;19937;-71
2022/03/24 19:03:43;;;;;;;;;;;;;;;13.25;36.47;100241.47;8239354;28;19948;-69
2022/03/24 19:07:44;;;;;;;;;;;;;;;13.16;36.10;100239.75;8239026;28;19929;-69
2022/03/24 19:11:46;;;;;;;;;;;;;;;13.06;35.78;100245.81;8249493;28;19930;-68
2022/03/24 19:15:48;;;;;;;;;;;;;;;13.02;37.64;100241.47;8240834;28;19929;-71
2022/03/24 19:19:50;;;;;;;;;;;;;;;12.70;41.13;100244.94;8252969;28;19940;-71
2022/03/24 19:23:52;;;;;;;;;;;;;;;12.39;42.45;100249.28;8251562;28;19929;-71
2022/03/24 19:27:54;;;;;;;;;;;;;;;12.13;42.25;100248.31;8249806;28;19952;-71
2022/03/24 19:31:55;;;;;;;;;;;;;;;11.93;42.24;100248.25;8245020;28;20560;-70
2022/03/24 19:35:56;;;;;;;;;;;;;;;11.80;43.74;100256.88;8244115;28;19953;-70
2022/03/24 19:39:58;;;;;;;;;;;;;;;11.64;43.73;100253.28;8246119;28;20001;-71
2022/03/24 19:44:03;;;;;;;;;;;;;;;11.49;44.63;100261.91;8250547;28;19929;-70
2022/03/24 19:48:05;;;;;;;;;;;;;;;11.37;43.47;100255.75;8249874;28;20328;-70
2022/03/24 19:52:07;;;;;;;;;;;;;;;11.25;46.14;100264.31;8246786;28;19988;-71
2022/03/24 19:56:09;;;;;;;;;;;;;;;11.10;46.78;100274.59;8248474;28;20015;-70
2022/03/24 20:00:11;;;;;;;;;;;;;;;10.83;48.95;100272.66;8243084;28;20309;-71
2022/03/24 20:04:12;;;;;;;;;;;;;;;10.61;48.29;100275.94;8245979;28;19930;-69
2022/03/24 20:08:14;;;;;;;;;;;;;;;10.44;49.71;100281.84;8247784;28;19980;-71
2022/03/24 20:12:16;;;;;;;;;;;;;;;10.31;48.57;100277.34;8242948;28;19930;-71
2022/03/24 20:16:18;;;;;;;;;;;;;;;10.19;49.49;100291.03;8241899;28;20398;-69
2022/03/24 20:20:20;;;;;;;;;;;;;;;9.98;50.13;100294.22;8237037;28;20401;-71
2022/03/24 20:24:21;;;;;;;;;;;;;;;9.83;51.23;100293.16;8255705;28;20033;-71
2022/03/24 20:28:23;;;;;;;;;;;;;;;9.64;52.12;100290.31;8245470;28;19930;-72
2022/03/24 20:32:24;;;;;;;;;;;;;;;9.53;52.40;100296.22;8246082;28;19930;-72
2022/03/24 20:36:25;;;;;;;;;;;;;;;9.43;52.04;100291.75;8252074;28;19929;-70
2022/03/24 20:40:27;;;;;;;;;;;;;;;9.30;52.80;100296.75;8245232;28;20342;-71
2022/03/24 20:44:28;;;;;;;;;;;;;;;9.16;52.55;100302.59;8247611;28;19930;-71
2022/03/24 20:48:30;;;;;;;;;;;;;;;9.06;53.60;100297.25;8239235;28;20320;-70
2022/03/24 20:52:31;;;;;;;;;;;;;;;8.92;53.90;100306.50;8247447;28;20876;-70
2022/03/24 20:56:33;;;;;;;;;;;;;;;8.82;54.75;100301.16;8247132;28;19930;-71